Terminal Aerodrome Forecast
Issued by NWS Cleveland, OH

Home | Current Version | Previous Version | Text Only | Print | Product List | Glossary On
Versions: 1 2 3 4 5 6 7 8 9 10 11 12 13 14 15 16
210
FTUS41 KCLE 221134
TAFMFD
TAF
KMFD 221134Z 2212/2312 20010KT P6SM SCT080 BKN150
     FM221700 20014G22KT P6SM SCT060 BKN180
     FM230600 20015G22KT P6SM BKN024
     FM230900 22014G24KT P6SM -SHRA BKN010 OVC020=

USA.gov is the U.S. government's official web portal to all federal, state and local government web resources and services.